Time;durP1;ratioP1;P1;durP2;ratioP2;P2;SDS_P1;SDS_P2;PMS_P1;PMS_P2;Temp;Humidity;BMP_temperature;BMP_pressure;BME280_temperature;BME280_humidity;BME280_pressure;Samples;Min_cycle;Max_cycle;Signal;HPM_P1;HPM_P2
2021/06/10 00:02:26;;;;;;;19.53;11.43;;;16.70;95.40;;;;;;5032379;28;20405;-75
2021/06/10 00:04:52;;;;;;;16.73;10.40;;;16.70;95.40;;;;;;5034821;28;20427;-76
2021/06/10 00:07:19;;;;;;;19.03;9.97;;;16.60;95.60;;;;;;5035030;28;20755;-76
2021/06/10 00:09:46;;;;;;;17.70;9.60;;;16.70;95.60;;;;;;5034928;28;20449;-77
2021/06/10 00:12:15;;;;;;;20.23;9.70;;;16.70;95.50;;;;;;5034298;28;21298;-76
2021/06/10 00:14:41;;;;;;;15.63;9.83;;;16.70;95.50;;;;;;5033447;28;20412;-75
2021/06/10 00:17:07;;;;;;;18.10;10.70;;;16.80;95.30;;;;;;5034023;28;20524;-75
2021/06/10 00:19:33;;;;;;;17.90;9.80;;;16.80;95.10;;;;;;5034327;28;20419;-77
2021/06/10 00:21:59;;;;;;;17.53;9.90;;;16.80;95.20;;;;;;5026081;28;20185;-76
2021/06/10 00:24:25;;;;;;;19.53;10.67;;;16.80;94.90;;;;;;5033340;28;20513;-75
2021/06/10 00:26:51;;;;;;;17.80;10.00;;;16.90;94.80;;;;;;5033946;28;20670;-74
2021/06/10 00:29:17;;;;;;;19.77;10.70;;;16.90;94.80;;;;;;5034204;28;20450;-75
2021/06/10 00:31:43;;;;;;;16.30;9.80;;;16.80;94.80;;;;;;5033105;28;20198;-75
2021/06/10 00:34:09;;;;;;;22.27;10.73;;;16.80;95.10;;;;;;5028206;28;20449;-76
2021/06/10 00:36:35;;;;;;;18.40;11.03;;;16.70;95.40;;;;;;5029673;28;20583;-75
2021/06/10 00:39:00;;;;;;;16.20;9.80;;;16.60;95.60;;;;;;5034493;28;20210;-75
2021/06/10 00:41:34;;;;;;;18.43;11.47;;;16.60;95.60;;;;;;5029536;28;20185;-75
2021/06/10 00:44:00;;;;;;;17.23;10.10;;;16.60;95.60;;;;;;5033376;28;20193;-75
2021/06/10 00:46:27;;;;;;;19.70;10.90;;;16.60;95.70;;;;;;5033014;28;20420;-75
2021/06/10 00:48:53;;;;;;;15.30;9.77;;;16.60;95.80;;;;;;5032765;28;20442;-75
2021/06/10 00:51:20;;;;;;;17.90;10.57;;;16.60;95.80;;;;;;5032330;28;20451;-75
2021/06/10 00:53:45;;;;;;;17.00;9.77;;;16.60;95.70;;;;;;5032598;28;20437;-75
2021/06/10 00:56:12;;;;;;;17.40;10.77;;;16.60;95.40;;;;;;5032803;28;21033;-75
2021/06/10 00:58:38;;;;;;;21.40;10.00;;;16.60;95.50;;;;;;5033145;28;20457;-76
2021/06/10 01:01:04;;;;;;;18.23;11.00;;;16.70;95.50;;;;;;5032768;28;20426;-76
2021/06/10 01:03:31;;;;;;;18.50;10.07;;;16.60;95.60;;;;;;5031414;28;20440;-75
2021/06/10 01:06:00;;;;;;;19.07;11.37;;;16.60;95.70;;;;;;5032348;28;20941;-75
2021/06/10 01:08:39;;;;;;;17.90;10.17;;;16.60;95.90;;;;;;5028562;28;20421;-76
2021/06/10 01:11:22;;;;;;;16.50;10.33;;;16.60;95.60;;;;;;5027903;28;20423;-75
2021/06/10 01:13:59;;;;;;;19.00;11.10;;;16.50;95.70;;;;;;5030328;28;20457;-75
2021/06/10 01:16:27;;;;;;;19.07;10.97;;;16.40;95.90;;;;;;5032288;28;21018;-76
2021/06/10 01:18:54;;;;;;;21.93;11.57;;;16.40;96.10;;;;;;5033104;28;20430;-76
2021/06/10 01:21:21;;;;;;;19.40;10.50;;;16.30;96.30;;;;;;5032291;28;20420;-77
2021/06/10 01:23:49;;;;;;;17.73;11.07;;;16.30;96.50;;;;;;5032236;28;20907;-76
2021/06/10 01:26:36;;;;;;;19.57;11.17;;;16.30;96.40;;;;;;5025835;28;21006;-75
2021/06/10 01:29:08;;;;;;;16.97;9.80;;;16.40;96.40;;;;;;5032672;28;20415;-75
2021/06/10 01:31:35;;;;;;;18.00;11.00;;;16.40;96.20;;;;;;5031121;28;20476;-75
2021/06/10 01:34:05;;;;;;;16.53;10.13;;;16.30;96.30;;;;;;5033477;28;20440;-75
2021/06/10 01:36:36;;;;;;;17.67;10.67;;;16.40;96.20;;;;;;5037375;28;20478;-75
2021/06/10 01:39:11;;;;;;;17.20;9.50;;;16.30;96.00;;;;;;5042717;28;20422;-75
2021/06/10 01:41:40;;;;;;;17.30;10.63;;;16.40;96.10;;;;;;5031767;28;20977;-74
2021/06/10 01:44:08;;;;;;;20.33;10.30;;;16.40;96.00;;;;;;5032151;28;20447;-75
2021/06/10 01:46:35;;;;;;;22.30;11.53;;;16.40;96.10;;;;;;5033103;28;20576;-75
2021/06/10 01:49:03;;;;;;;17.70;10.30;;;16.40;95.70;;;;;;5031989;28;20420;-77
2021/06/10 01:51:31;;;;;;;18.83;10.93;;;16.40;95.70;;;;;;5032710;28;20451;-76
2021/06/10 01:54:01;;;;;;;16.60;10.00;;;16.40;95.70;;;;;;5033039;28;20969;-75
2021/06/10 01:56:29;;;;;;;19.83;11.30;;;16.40;95.60;;;;;;5033140;28;20476;-76
2021/06/10 01:58:55;;;;;;;16.40;10.10;;;16.30;95.70;;;;;;5026065;28;20481;-75
2021/06/10 02:01:26;;;;;;;18.70;10.90;;;16.30;95.80;;;;;;5030399;28;20746;-75
2021/06/10 02:03:53;;;;;;;17.50;10.80;;;16.20;95.80;;;;;;5032351;28;20549;-74
2021/06/10 02:06:20;;;;;;;18.23;11.43;;;16.10;96.20;;;;;;5038153;28;20801;-75
2021/06/10 02:08:47;;;;;;;19.20;11.17;;;16.10;96.40;;;;;;5036562;28;20421;-76
2021/06/10 02:11:15;;;;;;;18.57;10.83;;;16.00;96.50;;;;;;5040373;28;20426;-74
2021/06/10 02:13:43;;;;;;;20.00;10.93;;;15.90;96.80;;;;;;5032231;28;20436;-75
2021/06/10 02:16:10;;;;;;;19.70;11.73;;;15.90;96.80;;;;;;5032228;28;20825;-75
2021/06/10 02:18:38;;;;;;;20.20;11.33;;;15.90;96.90;;;;;;5033689;28;20423;-75
2021/06/10 02:21:07;;;;;;;19.73;11.83;;;15.90;97.00;;;;;;5028785;28;20414;-76
2021/06/10 02:23:36;;;;;;;21.37;11.17;;;15.90;96.90;;;;;;5029557;28;20490;-75
2021/06/10 02:26:03;;;;;;;17.97;10.97;;;15.80;97.00;;;;;;5032499;28;20421;-76
2021/06/10 02:28:29;;;;;;;19.30;11.30;;;15.80;97.30;;;;;;5033062;28;20416;-75
2021/06/10 02:30:55;;;;;;;20.77;11.97;;;15.70;97.30;;;;;;5032209;28;20428;-78
2021/06/10 02:33:21;;;;;;;19.00;11.83;;;15.60;97.50;;;;;;5033228;28;20484;-76
2021/06/10 02:35:47;;;;;;;19.90;11.90;;;15.60;97.80;;;;;;5031928;28;20267;-76
2021/06/10 02:38:14;;;;;;;22.63;12.10;;;15.60;98.10;;;;;;5032369;28;20416;-76
2021/06/10 02:40:44;;;;;;;19.03;10.50;;;15.60;98.10;;;;;;5031904;28;20423;-76
2021/06/10 02:43:11;;;;;;;18.80;11.67;;;15.60;97.90;;;;;;5032376;28;20440;-75
2021/06/10 02:45:39;;;;;;;20.60;10.50;;;15.60;97.90;;;;;;5027906;28;20483;-76
2021/06/10 02:48:06;;;;;;;20.07;10.70;;;15.60;97.80;;;;;;5033041;28;20421;-76
2021/06/10 02:50:32;;;;;;;22.10;12.30;;;15.70;97.80;;;;;;5032738;28;20424;-75
2021/06/10 02:52:59;;;;;;;24.27;12.33;;;15.70;97.50;;;;;;5026734;28;20509;-76
2021/06/10 02:55:29;;;;;;;22.47;12.30;;;15.60;97.50;;;;;;5037261;28;20427;-75
2021/06/10 02:57:57;;;;;;;18.50;11.20;;;15.60;97.80;;;;;;5043433;28;20446;-76
2021/06/10 03:00:27;;;;;;;24.40;11.77;;;15.50;97.80;;;;;;5043244;28;20428;-76
2021/06/10 03:02:54;;;;;;;23.97;12.10;;;15.60;98.00;;;;;;5041273;28;20456;-76
2021/06/10 03:05:25;;;;;;;18.80;11.70;;;15.60;98.10;;;;;;5046132;28;20420;-75
2021/06/10 03:07:52;;;;;;;17.80;10.60;;;15.60;98.00;;;;;;5050240;28;20410;-76
2021/06/10 03:10:21;;;;;;;23.30;12.50;;;15.60;97.90;;;;;;5049233;28;20384;-75
2021/06/10 03:12:48;;;;;;;20.13;12.17;;;15.60;97.70;;;;;;5045063;28;20451;-75
2021/06/10 03:15:14;;;;;;;17.33;11.77;;;15.70;97.70;;;;;;5036103;28;20510;-75
2021/06/10 03:17:41;;;;;;;24.07;11.87;;;15.70;97.80;;;;;;5033347;28;20412;-76
2021/06/10 03:20:08;;;;;;;18.43;11.53;;;15.70;97.10;;;;;;5033051;28;20422;-76
2021/06/10 03:22:35;;;;;;;19.43;11.30;;;15.70;97.00;;;;;;5031804;28;21040;-76
2021/06/10 03:25:04;;;;;;;18.90;11.20;;;15.70;97.10;;;;;;5032173;28;20914;-74
2021/06/10 03:27:31;;;;;;;20.43;11.50;;;15.60;97.20;;;;;;5031733;28;20416;-75
2021/06/10 03:29:57;;;;;;;19.47;11.50;;;15.60;97.50;;;;;;5023226;28;20432;-74
2021/06/10 03:32:24;;;;;;;24.17;12.77;;;15.70;97.60;;;;;;5029051;28;20564;-76
2021/06/10 03:34:50;;;;;;;20.40;10.77;;;15.70;97.70;;;;;;5030967;28;20849;-75
2021/06/10 03:37:17;;;;;;;22.30;11.60;;;15.70;97.80;;;;;;5033148;28;20459;-76
2021/06/10 03:39:45;;;;;;;18.63;11.07;;;15.80;97.90;;;;;;5034104;28;20436;-75
2021/06/10 03:42:12;;;;;;;21.23;11.83;;;15.80;97.80;;;;;;5035058;28;20451;-76
2021/06/10 03:44:38;;;;;;;19.03;10.73;;;15.90;97.50;;;;;;5034873;28;20448;-75
2021/06/10 03:47:05;;;;;;;18.07;11.23;;;15.90;97.00;;;;;;5035120;28;20421;-76
2021/06/10 03:49:32;;;;;;;18.73;10.60;;;15.80;96.20;;;;;;5035420;28;20957;-75
2021/06/10 03:51:58;;;;;;;19.60;11.63;;;15.70;96.40;;;;;;5030797;28;20415;-76
2021/06/10 03:54:24;;;;;;;18.30;10.90;;;15.60;96.70;;;;;;5034796;28;20445;-76
2021/06/10 03:56:50;;;;;;;20.97;12.47;;;15.50;97.30;;;;;;5034674;28;20981;-76
2021/06/10 03:59:16;;;;;;;21.03;11.27;;;15.40;97.40;;;;;;5034589;28;20415;-75
2021/06/10 04:01:42;;;;;;;21.53;11.87;;;15.40;97.80;;;;;;5032360;28;20467;-76
2021/06/10 04:04:08;;;;;;;20.93;11.77;;;15.40;98.00;;;;;;5034344;28;20197;-76
2021/06/10 04:06:35;;;;;;;22.10;11.70;;;15.40;97.80;;;;;;5034706;28;20511;-75
2021/06/10 04:09:06;;;;;;;23.43;12.03;;;15.50;97.70;;;;;;5034615;28;20420;-76
2021/06/10 04:11:32;;;;;;;20.10;12.07;;;15.50;97.40;;;;;;5034081;28;20983;-77
2021/06/10 04:13:59;;;;;;;20.73;12.30;;;15.60;97.10;;;;;;5034718;28;20436;-76
2021/06/10 04:16:25;;;;;;;20.80;11.20;;;15.60;97.00;;;;;;5032881;28;20506;-76
2021/06/10 04:18:53;;;;;;;20.47;11.47;;;15.60;97.00;;;;;;5034537;28;20435;-75
2021/06/10 04:21:19;;;;;;;20.37;12.07;;;15.70;96.90;;;;;;5033744;28;20476;-76
2021/06/10 04:23:45;;;;;;;17.07;11.00;;;15.80;96.80;;;;;;5033728;28;20517;-76
2021/06/10 04:26:11;;;;;;;20.87;11.40;;;15.90;96.40;;;;;;5036626;28;20498;-76
2021/06/10 04:28:37;;;;;;;18.57;11.73;;;15.90;96.10;;;;;;5046756;28;20961;-75
2021/06/10 04:31:03;;;;;;;16.63;10.57;;;15.80;96.10;;;;;;5048083;28;20424;-76
2021/06/10 04:33:29;;;;;;;21.60;11.63;;;15.80;96.30;;;;;;5034641;28;20201;-75
2021/06/10 04:35:54;;;;;;;20.10;11.20;;;15.80;96.40;;;;;;5033293;28;20463;-75
2021/06/10 04:38:20;;;;;;;18.30;11.90;;;15.70;96.50;;;;;;5032584;28;20207;-76
2021/06/10 04:40:46;;;;;;;21.33;12.90;;;15.80;96.50;;;;;;5033420;28;20188;-76
2021/06/10 04:43:12;;;;;;;19.17;11.30;;;15.80;96.40;;;;;;5034426;28;21011;-76
2021/06/10 04:45:38;;;;;;;18.83;11.80;;;15.80;96.50;;;;;;5033046;28;20558;-76
2021/06/10 04:48:04;;;;;;;19.77;12.00;;;15.90;96.40;;;;;;5033771;28;20425;-76
2021/06/10 04:50:31;;;;;;;20.20;11.90;;;15.90;96.40;;;;;;5033980;28;20594;-76
2021/06/10 04:52:57;;;;;;;19.43;12.57;;;16.00;96.20;;;;;;5025526;28;20470;-76
2021/06/10 04:55:24;;;;;;;18.93;11.70;;;16.00;95.90;;;;;;5033374;28;20826;-76
2021/06/10 04:57:50;;;;;;;19.10;11.43;;;16.00;96.10;;;;;;5033365;28;20422;-77
2021/06/10 05:00:16;;;;;;;21.23;12.20;;;16.10;95.90;;;;;;5032834;28;20471;-76
2021/06/10 05:02:42;;;;;;;21.80;12.60;;;16.20;95.60;;;;;;5031698;28;20324;-76
2021/06/10 05:05:08;;;;;;;24.47;12.27;;;16.30;95.60;;;;;;5032846;28;20423;-76
2021/06/10 05:07:34;;;;;;;19.37;11.63;;;16.40;95.30;;;;;;5032721;28;20185;-76
2021/06/10 05:10:00;;;;;;;19.80;12.13;;;16.50;95.10;;;;;;5031595;28;20976;-75
2021/06/10 05:12:26;;;;;;;20.00;11.40;;;16.50;94.40;;;;;;5031606;28;20483;-76
2021/06/10 05:14:52;;;;;;;21.07;12.40;;;16.50;94.70;;;;;;5032242;28;20259;-76
2021/06/10 05:17:18;;;;;;;23.17;11.73;;;16.60;94.70;;;;;;5032765;28;20197;-77
2021/06/10 05:19:44;;;;;;;19.80;11.60;;;16.70;94.50;;;;;;5032916;28;20464;-76
2021/06/10 05:22:09;;;;;;;18.60;10.40;;;16.70;94.30;;;;;;5031722;28;20452;-76
2021/06/10 05:24:35;;;;;;;20.20;12.07;;;16.80;94.10;;;;;;5032499;28;20705;-77
2021/06/10 05:27:01;;;;;;;19.30;10.80;;;16.80;93.70;;;;;;5032720;28;20199;-76
2021/06/10 05:29:27;;;;;;;25.70;11.70;;;16.80;93.80;;;;;;5032070;28;20201;-76
2021/06/10 05:31:53;;;;;;;19.73;12.23;;;16.80;94.00;;;;;;5029908;28;20759;-76
2021/06/10 05:34:19;;;;;;;21.60;11.83;;;16.90;94.00;;;;;;5031903;28;20193;-76
2021/06/10 05:36:45;;;;;;;22.70;12.20;;;17.00;93.70;;;;;;5032291;28;20478;-75
2021/06/10 05:39:11;;;;;;;21.63;12.00;;;17.00;93.50;;;;;;5032713;28;20926;-75
2021/06/10 05:41:37;;;;;;;18.27;10.80;;;17.10;93.40;;;;;;5032155;28;20424;-75
2021/06/10 05:44:03;;;;;;;19.13;11.20;;;17.20;93.30;;;;;;5031234;28;21048;-74
2021/06/10 05:46:28;;;;;;;19.90;12.47;;;17.20;93.10;;;;;;5032659;28;20231;-75
2021/06/10 05:48:54;;;;;;;23.47;11.97;;;17.30;93.20;;;;;;5032643;28;20473;-75
2021/06/10 05:51:21;;;;;;;21.33;12.83;;;17.40;93.00;;;;;;5029493;28;20188;-74
2021/06/10 05:53:46;;;;;;;22.33;12.00;;;17.50;92.60;;;;;;5031232;28;20693;-74
2021/06/10 05:56:12;;;;;;;21.33;11.40;;;17.60;92.60;;;;;;5031913;28;20578;-75
2021/06/10 05:58:38;;;;;;;21.90;12.60;;;17.80;92.20;;;;;;5032143;28;20198;-75
2021/06/10 06:01:04;;;;;;;20.03;12.60;;;17.90;91.30;;;;;;5030030;28;20442;-74
2021/06/10 06:03:30;;;;;;;18.63;10.97;;;18.00;91.20;;;;;;5032433;28;20201;-75
2021/06/10 06:05:57;;;;;;;24.27;12.60;;;18.00;91.20;;;;;;5029598;28;20428;-74
2021/06/10 06:08:23;;;;;;;19.50;12.40;;;18.10;91.20;;;;;;5031815;28;20420;-74
2021/06/10 06:10:51;;;;;;;20.27;11.53;;;18.20;90.90;;;;;;5031338;28;20953;-74
2021/06/10 06:13:24;;;;;;;19.63;11.50;;;18.30;90.80;;;;;;5030747;28;20479;-74
2021/06/10 06:15:57;;;;;;;19.33;11.17;;;18.40;90.20;;;;;;5030918;28;20962;-74
2021/06/10 06:18:22;;;;;;;19.37;11.40;;;18.50;90.10;;;;;;5031746;28;20487;-74
2021/06/10 06:20:48;;;;;;;18.77;10.60;;;18.60;89.90;;;;;;5035463;28;20512;-74
2021/06/10 06:23:15;;;;;;;16.40;9.77;;;18.70;90.00;;;;;;5031658;28;20222;-74
2021/06/10 06:25:40;;;;;;;17.73;10.90;;;18.90;89.20;;;;;;5031432;28;20199;-74
2021/06/10 06:28:06;;;;;;;17.90;11.17;;;19.00;88.90;;;;;;5032719;28;20916;-75
2021/06/10 06:30:32;;;;;;;15.47;9.97;;;19.20;88.70;;;;;;5032784;28;20190;-76
2021/06/10 06:32:58;;;;;;;19.87;11.70;;;19.30;88.60;;;;;;5032376;28;20206;-74
2021/06/10 06:35:23;;;;;;;24.47;14.30;;;19.50;88.10;;;;;;5030540;28;20235;-74
2021/06/10 06:37:50;;;;;;;27.43;13.73;;;19.60;87.00;;;;;;5031265;28;20186;-74
2021/06/10 06:40:18;;;;;;;22.33;14.30;;;19.30;87.10;;;;;;5030110;28;20182;-74
2021/06/10 06:42:43;;;;;;;18.33;11.40;;;19.40;87.70;;;;;;5030548;28;20438;-76
2021/06/10 06:45:09;;;;;;;19.30;11.53;;;19.60;87.60;;;;;;5034138;28;20413;-75
2021/06/10 06:47:35;;;;;;;17.87;11.60;;;19.70;86.80;;;;;;5034936;28;20242;-73
2021/06/10 06:50:01;;;;;;;23.33;11.70;;;19.80;86.80;;;;;;5032837;28;20846;-74
2021/06/10 06:52:27;;;;;;;20.60;12.80;;;19.80;86.80;;;;;;5030727;28;20186;-75
2021/06/10 06:54:52;;;;;;;19.70;11.80;;;19.90;86.20;;;;;;5038811;28;20791;-73
2021/06/10 06:57:18;;;;;;;20.83;11.30;;;19.90;85.70;;;;;;5037560;28;20197;-77
2021/06/10 06:59:44;;;;;;;21.00;12.60;;;19.90;85.50;;;;;;5032057;28;20196;-75
2021/06/10 07:02:10;;;;;;;21.67;12.13;;;20.10;84.90;;;;;;5030249;28;20174;-75
2021/06/10 07:04:36;;;;;;;18.57;12.03;;;20.10;85.30;;;;;;5031773;28;20934;-76
2021/06/10 07:07:02;;;;;;;18.57;11.77;;;20.20;85.30;;;;;;5030629;28;20424;-75
2021/06/10 07:09:28;;;;;;;18.47;10.83;;;20.40;85.00;;;;;;5024447;28;20181;-77
2021/06/10 07:11:53;;;;;;;16.57;10.87;;;20.60;83.80;;;;;;5031645;28;20232;-75
2021/06/10 07:14:19;;;;;;;18.30;10.80;;;20.80;82.40;;;;;;5031520;28;20539;-74
2021/06/10 07:16:45;;;;;;;16.53;11.00;;;20.90;81.90;;;;;;5031469;28;20205;-74
2021/06/10 07:19:11;;;;;;;24.23;11.67;;;20.90;81.80;;;;;;5031860;28;20184;-75
2021/06/10 07:21:44;;;;;;;17.80;11.73;;;20.90;82.40;;;;;;5031822;28;20412;-76
2021/06/10 07:24:11;;;;;;;17.03;10.97;;;20.90;81.80;;;;;;5032207;28;20208;-75
2021/06/10 07:26:37;;;;;;;17.00;11.23;;;21.10;81.10;;;;;;5032899;28;20426;-75
2021/06/10 07:29:03;;;;;;;16.40;11.17;;;21.20;80.50;;;;;;5031536;28;20437;-76
2021/06/10 07:31:29;;;;;;;17.13;11.43;;;21.30;79.70;;;;;;5030912;28;20414;-76
2021/06/10 07:33:55;;;;;;;15.23;10.63;;;21.40;78.60;;;;;;5031113;28;20608;-74
2021/06/10 07:36:20;;;;;;;21.00;12.70;;;21.50;79.30;;;;;;5032444;28;20298;-76
2021/06/10 07:38:46;;;;;;;20.23;12.70;;;21.50;78.90;;;;;;5032969;28;20182;-75
2021/06/10 07:41:12;;;;;;;17.57;12.40;;;21.50;79.00;;;;;;5030486;28;20907;-75
2021/06/10 07:43:38;;;;;;;21.17;12.60;;;21.40;78.90;;;;;;5032592;28;20214;-75
2021/06/10 07:46:04;;;;;;;20.67;12.97;;;21.40;79.20;;;;;;5032644;28;20511;-74
2021/06/10 07:48:29;;;;;;;20.47;12.47;;;21.50;79.20;;;;;;5031759;28;20213;-74
2021/06/10 07:50:56;;;;;;;24.23;12.30;;;21.60;78.10;;;;;;5031953;28;20205;-74
2021/06/10 07:53:22;;;;;;;16.83;11.70;;;21.70;78.30;;;;;;5033583;28;20291;-75
2021/06/10 07:55:54;;;;;;;23.47;13.00;;;21.70;77.80;;;;;;5033284;28;20554;-75
2021/06/10 07:58:20;;;;;;;22.90;12.77;;;21.90;77.40;;;;;;5033226;28;20190;-74
2021/06/10 08:00:46;;;;;;;17.83;11.43;;;21.80;77.10;;;;;;5032049;28;20434;-77
2021/06/10 08:03:11;;;;;;;19.93;12.17;;;21.80;77.70;;;;;;5032707;28;21148;-75
2021/06/10 08:05:37;;;;;;;20.20;12.03;;;21.80;77.40;;;;;;5033120;28;20297;-77
2021/06/10 08:08:04;;;;;;;19.83;12.80;;;21.80;77.80;;;;;;5032129;28;20235;-74
2021/06/10 08:10:29;;;;;;;18.30;11.60;;;21.70;77.60;;;;;;5052265;28;20550;-78
2021/06/10 08:12:55;;;;;;;21.47;12.50;;;21.80;78.10;;;;;;5030649;28;20436;-75
2021/06/10 08:15:21;;;;;;;21.00;13.33;;;21.90;78.00;;;;;;5030665;28;20182;-74
2021/06/10 08:17:47;;;;;;;16.57;10.70;;;22.10;77.70;;;;;;5025158;28;20189;-75
2021/06/10 08:20:17;;;;;;;20.10;11.77;;;22.20;76.50;;;;;;5029805;28;20418;-75
2021/06/10 08:22:43;;;;;;;18.70;13.00;;;22.20;75.90;;;;;;5030305;28;21310;-78
2021/06/10 08:25:09;;;;;;;19.10;12.03;;;22.10;76.50;;;;;;5034589;28;20425;-75
2021/06/10 08:27:36;;;;;;;19.60;12.83;;;21.90;77.10;;;;;;5034575;28;20179;-75
2021/06/10 08:30:06;;;;;;;22.33;13.23;;;21.90;77.30;;;;;;5034974;28;20504;-76
2021/06/10 08:32:32;;;;;;;21.80;12.60;;;21.80;77.80;;;;;;5040490;28;20436;-79
2021/06/10 08:34:57;;;;;;;18.97;12.03;;;21.90;77.70;;;;;;5042460;28;20884;-75
2021/06/10 08:37:23;;;;;;;22.80;13.97;;;22.00;77.10;;;;;;5040958;28;20373;-77
2021/06/10 08:39:50;;;;;;;24.77;13.80;;;21.80;77.70;;;;;;5042143;28;20217;-74
2021/06/10 08:42:15;;;;;;;23.70;14.13;;;21.80;77.80;;;;;;5039387;28;20186;-74
2021/06/10 08:44:43;;;;;;;19.77;13.00;;;21.80;78.00;;;;;;5037984;28;20430;-77
2021/06/10 08:47:10;;;;;;;23.03;14.33;;;22.00;77.40;;;;;;5034731;28;20368;-74
2021/06/10 08:49:36;;;;;;;22.13;13.13;;;22.10;77.10;;;;;;5034565;28;20434;-75
2021/06/10 08:52:06;;;;;;;22.20;14.23;;;22.10;77.30;;;;;;5032374;28;20440;-76
2021/06/10 08:54:32;;;;;;;19.00;12.13;;;22.20;76.40;;;;;;5034745;28;20442;-75
2021/06/10 08:56:59;;;;;;;18.90;12.10;;;22.30;76.50;;;;;;5031413;28;20478;-75
2021/06/10 08:59:25;;;;;;;17.33;11.63;;;22.50;75.80;;;;;;5034448;28;20418;-75
2021/06/10 09:01:51;;;;;;;17.80;11.83;;;22.70;75.50;;;;;;5033645;28;20430;-75
2021/06/10 09:04:17;;;;;;;17.17;12.63;;;23.00;74.30;;;;;;5032850;28;20212;-75
2021/06/10 09:06:51;;;;;;;16.97;12.10;;;23.10;73.30;;;;;;5034320;28;20590;-77
2021/06/10 09:09:21;;;;;;;22.47;13.20;;;23.20;73.00;;;;;;5034255;28;20426;-76
2021/06/10 09:11:48;;;;;;;19.00;11.70;;;23.20;72.60;;;;;;5029411;28;20547;-76
2021/06/10 09:14:14;;;;;;;19.07;12.70;;;23.30;72.40;;;;;;5033018;28;20461;-76
2021/06/10 09:16:40;;;;;;;20.37;12.60;;;23.40;72.30;;;;;;5034653;28;20462;-74
2021/06/10 09:19:17;;;;;;;22.70;13.80;;;23.50;71.70;;;;;;5034153;28;20239;-76
2021/06/10 09:21:48;;;;;;;20.60;12.50;;;23.50;70.80;;;;;;5034433;28;20431;-74
2021/06/10 09:24:20;;;;;;;21.60;13.73;;;23.60;70.10;;;;;;5034414;28;20469;-75
2021/06/10 09:26:54;;;;;;;23.37;14.10;;;23.50;70.20;;;;;;5034804;28;20931;-76
2021/06/10 09:29:32;;;;;;;21.57;12.47;;;23.60;71.00;;;;;;5033414;28;20429;-76
2021/06/10 09:31:58;;;;;;;20.63;13.43;;;23.70;70.20;;;;;;5028291;28;20458;-76
2021/06/10 09:34:28;;;;;;;20.67;13.50;;;23.80;69.50;;;;;;5032838;28;21018;-79
2021/06/10 09:36:54;;;;;;;20.30;13.30;;;23.80;69.10;;;;;;5034873;28;20223;-76
2021/06/10 09:39:23;;;;;;;16.50;12.20;;;23.90;69.20;;;;;;5033963;28;20429;-76
2021/06/10 09:41:58;;;;;;;20.03;12.53;;;23.80;68.50;;;;;;5034620;28;20212;-75
2021/06/10 09:44:43;;;;;;;19.07;13.37;;;23.90;68.30;;;;;;5031269;28;20465;-77
2021/06/10 09:47:10;;;;;;;24.70;13.70;;;23.90;69.10;;;;;;5035659;28;20923;-75
2021/06/10 09:49:36;;;;;;;20.63;12.83;;;23.90;69.10;;;;;;5034516;28;20432;-76
2021/06/10 09:52:02;;;;;;;19.70;13.30;;;23.70;70.40;;;;;;5034468;28;20421;-76
2021/06/10 09:54:41;;;;;;;18.97;13.67;;;23.80;70.10;;;;;;5054210;28;20217;-76
2021/06/10 09:57:07;;;;;;;26.90;15.30;;;24.10;69.50;;;;;;5034155;28;20504;-75
2021/06/10 09:59:48;;;;;;;23.23;15.07;;;24.40;68.80;;;;;;5035094;28;20424;-76
2021/06/10 10:02:26;;;;;;;25.27;16.97;;;24.50;67.70;;;;;;5028391;28;20511;-77
2021/06/10 10:05:00;;;;;;;25.07;15.50;;;24.00;69.40;;;;;;5033791;28;20423;-76
2021/06/10 10:07:31;;;;;;;24.97;16.87;;;24.10;69.70;;;;;;5029767;28;20751;-75
2021/06/10 10:09:59;;;;;;;24.93;16.43;;;24.20;68.30;;;;;;5036010;28;20434;-74
2021/06/10 10:12:27;;;;;;;25.33;17.73;;;24.60;67.30;;;;;;5036579;28;20501;-77
2021/06/10 10:14:54;;;;;;;22.93;16.50;;;24.60;66.90;;;;;;5034620;28;20434;-76
2021/06/10 10:17:21;;;;;;;25.90;16.80;;;24.50;68.30;;;;;;5033167;28;20455;-75
2021/06/10 10:19:47;;;;;;;24.97;18.00;;;25.00;67.60;;;;;;5036162;28;20459;-76
2021/06/10 10:22:13;;;;;;;21.93;16.20;;;25.30;65.10;;;;;;5036360;28;20895;-78
2021/06/10 10:24:40;;;;;;;25.13;16.63;;;25.80;64.50;;;;;;5039348;28;20452;-76
2021/06/10 10:27:10;;;;;;;24.93;16.17;;;26.30;62.90;;;;;;5036734;28;20448;-76
2021/06/10 10:29:38;;;;;;;20.60;14.07;;;26.80;62.00;;;;;;5037539;28;20830;-76
2021/06/10 10:32:06;;;;;;;28.70;17.37;;;27.40;60.40;;;;;;5037924;28;20444;-77
2021/06/10 10:34:34;;;;;;;20.67;15.87;;;27.40;58.00;;;;;;5036681;28;20957;-75
2021/06/10 10:37:18;;;;;;;30.23;16.27;;;26.80;59.30;;;;;;5033945;28;20467;-77
2021/06/10 10:39:45;;;;;;;23.53;16.17;;;27.20;59.10;;;;;;5036351;28;20429;-74
2021/06/10 10:42:30;;;;;;;21.33;15.00;;;27.70;58.10;;;;;;5038315;28;20424;-76
2021/06/10 10:45:12;;;;;;;25.73;16.40;;;28.00;56.90;;;;;;5036780;28;20408;-75
2021/06/10 10:48:03;;;;;;;17.13;13.60;;;28.40;55.80;;;;;;5032796;28;20799;-75
2021/06/10 10:50:45;;;;;;;24.43;17.07;;;28.80;54.10;;;;;;5030999;28;20432;-74
2021/06/10 10:53:25;;;;;;;24.00;16.13;;;27.90;55.00;;;;;;5034529;28;20461;-76
2021/06/10 10:56:09;;;;;;;22.10;16.17;;;27.50;56.00;;;;;;5035347;28;20461;-76
2021/06/10 10:58:35;;;;;;;22.73;15.47;;;27.60;56.40;;;;;;5033323;28;20426;-75
2021/06/10 11:01:03;;;;;;;22.00;14.80;;;27.50;56.20;;;;;;5030639;28;20435;-75
2021/06/10 11:03:43;;;;;;;19.00;14.80;;;27.30;58.20;;;;;;5033494;28;20446;-76
2021/06/10 11:06:22;;;;;;;21.67;15.50;;;27.00;58.50;;;;;;5029069;28;20414;-75
2021/06/10 11:09:12;;;;;;;28.40;19.63;;;26.00;61.50;;;;;;5036980;28;20426;-74
2021/06/10 11:11:58;;;;;;;26.90;19.77;;;25.40;62.80;;;;;;5045149;28;20436;-76
2021/06/10 11:14:52;;;;;;;25.20;19.03;;;24.70;65.40;;;;;;5037027;28;20505;-74
2021/06/10 11:17:28;;;;;;;28.50;18.93;;;24.70;65.30;;;;;;5023304;28;20494;-75
2021/06/10 11:20:06;;;;;;;25.10;17.53;;;24.60;65.10;;;;;;5033899;28;20422;-78
2021/06/10 11:22:43;;;;;;;25.47;17.07;;;24.60;65.40;;;;;;5033692;28;20855;-77
2021/06/10 11:25:15;;;;;;;22.93;16.73;;;24.90;65.30;;;;;;5023368;28;20424;-76
2021/06/10 11:27:46;;;;;;;22.87;17.07;;;25.10;63.50;;;;;;5030750;28;20428;-76
2021/06/10 11:30:22;;;;;;;24.33;17.60;;;25.80;62.30;;;;;;5034094;28;20428;-77
2021/06/10 11:33:06;;;;;;;25.67;18.43;;;26.40;59.50;;;;;;5032216;28;20446;-75
2021/06/10 11:35:35;;;;;;;22.50;16.70;;;26.30;58.20;;;;;;5033838;28;20483;-75
2021/06/10 11:38:23;;;;;;;25.53;17.37;;;26.10;58.20;;;;;;5033933;28;20433;-76
2021/06/10 11:40:55;;;;;;;23.43;15.60;;;26.10;58.50;;;;;;5033429;28;20432;-76
2021/06/10 11:43:23;;;;;;;20.80;14.70;;;26.60;56.90;;;;;;5034098;28;20473;-77
2021/06/10 11:45:50;;;;;;;24.13;15.30;;;26.80;54.90;;;;;;5034455;28;20787;-75
2021/06/10 11:48:34;;;;;;;19.93;13.93;;;27.10;55.30;;;;;;5034992;28;20493;-76
2021/06/10 11:51:00;;;;;;;23.23;14.20;;;27.90;52.50;;;;;;5033086;28;20432;-76
2021/06/10 11:53:30;;;;;;;18.60;14.53;;;28.50;51.30;;;;;;5034168;28;20446;-78
2021/06/10 11:55:57;;;;;;;22.47;17.00;;;28.60;51.20;;;;;;5033940;28;20203;-77
2021/06/10 11:58:29;;;;;;;27.10;17.90;;;27.60;54.20;;;;;;5035198;28;20436;-76
2021/06/10 12:00:55;;;;;;;26.00;17.83;;;26.40;57.20;;;;;;5036942;28;20909;-76
2021/06/10 12:03:21;;;;;;;25.97;18.60;;;26.20;57.00;;;;;;5037078;28;20448;-75
2021/06/10 12:05:47;;;;;;;23.37;17.27;;;25.90;56.90;;;;;;5037624;28;20430;-76
2021/06/10 12:08:22;;;;;;;24.43;17.13;;;26.50;56.10;;;;;;5037479;28;20438;-76
2021/06/10 12:10:54;;;;;;;25.37;18.87;;;26.60;55.60;;;;;;5036250;28;20211;-75
2021/06/10 12:13:36;;;;;;;22.30;17.67;;;26.40;56.50;;;;;;5057507;28;20439;-75
2021/06/10 12:16:04;;;;;;;25.13;16.83;;;26.30;57.70;;;;;;5035781;28;20490;-76
2021/06/10 12:18:30;;;;;;;24.90;17.83;;;26.80;56.50;;;;;;5036343;28;20423;-76
2021/06/10 12:21:08;;;;;;;22.50;16.53;;;26.80;56.90;;;;;;5035637;28;20426;-75
2021/06/10 12:23:46;;;;;;;24.10;15.73;;;27.40;55.40;;;;;;5036030;28;20484;-76
2021/06/10 12:26:17;;;;;;;21.07;16.13;;;26.50;56.40;;;;;;5036808;28;20545;-75
2021/06/10 12:28:49;;;;;;;21.33;16.33;;;26.40;56.60;;;;;;5036973;28;20427;-74
2021/06/10 12:31:25;;;;;;;21.37;15.40;;;26.80;55.60;;;;;;5030214;28;20425;-77
2021/06/10 12:33:59;;;;;;;19.47;14.60;;;26.70;56.00;;;;;;5035912;28;20451;-76
2021/06/10 12:36:31;;;;;;;24.90;17.20;;;27.40;54.40;;;;;;5036045;28;20492;-76